• Join FlightAware (Why Join?)
  • Login
  • US Flag 
03:23AM EDT


 

Airport Tracker/Info


-or-


 

Live Flight TrackerFlight Track Log ✈ N364PH ✈ 22-Apr-2013 ✈ KEWR - KSYR

Flight Track Log - Related Links

Times and Time Zones

All times are in EDT time to prevent confusion due to time zone crossing. See the N364PH flight status page for this flight to view local times or setup timezone preferences in your user account.

Time Position Orientation Groundspeed Altitude Reporting Facility
EDT Latitude Longitude Course Direction KTS MPH feet Rate Location/Type
10:57PM 40.7500 -74.1167 342° North 186 214 2,800  Level New York TRACON
10:58PM 40.7667 -74.1833 288° West 205 236 4,100 1,380 Climbing New York TRACON
10:59PM 40.7833 -74.2500 288° West 206 237 5,600 1,380 Climbing New York TRACON
11:00PM 41.0435 -74.3329 342° North  Level FlightAware Approximate
11:00PM 40.8167 -74.3000 311° West 204 235 6,900  Level New York TRACON
11:01PM 41.1064 -74.3602 342° North  Level FlightAware Approximate
11:01PM 40.8833 -74.3333 339° North 201 231 8,400  Level New York TRACON
11:02PM 41.1692 -74.3881 342° North  Level FlightAware Approximate
11:02PM 40.9333 -74.3500 346° North 209 241 9,900  Level New York TRACON
11:03PM 40.9775 -74.3769 335° Northwest 235 270 9,900 540 Level New York Center
11:04PM 41.0369 -74.4078 339° North 252 290 10,900 1,080 Climbing New York Center
11:05PM 41.1025 -74.4386 340° North 225 259 12,100 540 Climbing New York Center
11:06PM 41.1619 -74.4694 339° North 239 275 12,100  Level New York Center
11:07PM 41.2419 -74.5097 339° North 264 304 12,100  Level New York Center
11:08PM 41.3097 -74.5411 341° North 274 315 12,100  Level New York Center
11:09PM 41.3917 -74.5789 341° North 279 321 12,100  Level New York Center
11:10PM 41.4375 -74.6481 311° West 273 314 12,100  Level New York Center
11:12PM 41.5231 -74.8192 304° West 286 329 12,100  Level Boston Center
11:13PM 41.5669 -74.9094 303° West 276 318 12,100  Level Boston Center
11:14PM 41.6242 -74.9561 329° Northwest 260 299 12,100  Level Boston Center
11:15PM 41.6939 -75.0119 329° Northwest 267 307 12,100  Level Boston Center
11:16PM 41.7511 -75.0586 329° Northwest 267 307 12,100  Level Boston Center
11:17PM 41.8206 -75.1172 328° Northwest 272 313 12,100  Level Boston Center
11:18PM 41.8778 -75.1617 330° Northwest 272 313 12,100  Level Boston Center
11:19PM 41.9433 -75.2175 328° Northwest 272 313 12,100  Level Boston Center
11:20PM 42.0189 -75.2767 330° Northwest 272 313 12,100 -60 Level Boston Center
11:21PM 42.0822 -75.3269 329° Northwest 272 313 12,000 -60 Descending Boston Center
11:22PM 42.1478 -75.3719 333° Northwest 267 307 12,000  Level Boston Center
11:23PM 42.2133 -75.4200 332° Northwest 261 300 12,000  Level Boston Center
11:24PM 42.2789 -75.4653 333° Northwest 261 300 12,000 -60 Level Boston Center
11:25PM 42.3442 -75.5106 333° Northwest 261 300 11,900 -60 Descending Boston Center
11:26PM 42.4097 -75.5561 333° Northwest 261 300 11,900  Level Boston Center
11:27PM 42.4750 -75.6069 330° Northwest 267 307 12,000 -180 Climbing Boston Center
11:28PM 42.5403 -75.6556 331° Northwest 261 300 11,600 -480 Descending Boston Center
11:29PM 42.6100 -75.6986 336° Northwest 261 300 11,100 -720 Descending Boston Center
11:30PM 42.6794 -75.7503 331° Northwest 268 308 10,200 -960 Descending Boston Center
11:31PM 42.7469 -75.7964 333° Northwest 268 308 9,200 -1,020 Descending Boston Center
11:32PM 42.8100 -75.8481 329° Northwest 273 314 8,200 -1,080 Descending Boston Center
11:33PM 42.8617 -75.9272 312° West 249 287 7,100 -1,080 Descending Boston Center
11:34PM 42.9097 -75.9925 315° West 252 290 6,100 -1,080 Descending Boston Center
11:35PM 42.9575 -76.0633 313° West 247 284 5,000 -1,080 Descending Boston Center
11:36PM 43.0056 -76.1286 315° West 247 284 4,000 -1,020 Descending Boston Center
11:37PM 43.0478 -76.1767 320° Northwest 229 264 3,000 -1,080 Descending Boston Center
11:38PM 43.0911 -76.1936 344° North 165 190 1,900 -1,080 Descending Boston Center
11:39PM 43.1108 -76.1578 53° Northeast 114 131 900 -780 Descending Boston Center
11:40PM 43.1125 -76.1122 87° East 83 96 400 -300 Descending Boston Center
11:41PM 43.1125 -76.1067 90° East 64 74 400  Level Boston Center